Boca Raton, FL (33431)

6:59 PM EST on December 18, 2014 (GMT -0500)
University Gardens | Change Station
CLOSE
Current Station
Personal Weather Station
Location: Boca Raton, FL
Elevation: 39 ft
Nearby Weather Stations

Elev 39 ft 26.39 °N, 80.09 °W | Updated 9 minutes ago

Clear
Clear
66.4 °F
Feels Like 66.4 °F
N
0.7
Wind Variable Wind from North
Gusts 2.7 mph

Today
High -- | Low -- °F
--% Chance of Precip.
Yesterday
High -- | Low -- °F
Precip. -- in
7:02 AM 5:31 PM
Waning Crescent, 11% visible
Pressure 30.08 in
Visibility 10.0 miles
Clouds Clear
Dew Point 58 °F
Humidity 73%
Rainfall 0.00 in
Snow Depth Not available.
UV 0 out of 12
Pollen 3.90 out of 12
Air Quality Not available.
Flu Activity Not available.
METAR KPMP 182353Z 35004KT 10SM CLR 21/12 A3008 RMK AO2 SLP186 T02060117 10261 20206 50003

More Conditions Fewer Conditions

Pressure 30.08 in
Visibility 10.0 miles
Clouds Clear
Dew Point 58 °F
Humidity 73%
Rainfall 0.00 in
Snow Depth Not available.
UV 0 out of 12
Pollen 3.90 out of 12
Air Quality Not available.
Flu Activity Not available.
METAR KPMP 182353Z 35004KT 10SM CLR 21/12 A3008 RMK AO2 SLP186 T02060117 10261 20206 50003

More Conditions Fewer Conditions

10-Day Weather Forecast

Almanac

Astronomy

Dec. 18, 2014 Rise Set
Actual Time
Civil Twilight
Nautical Twilight
Astronomical Twilight
Moon
Length of Visible Light
Length of Day
Tomorrow will be .
, % of the Moon is Illuminated

Today's Extremes

State Highs State Lows

Community

WunderPhotos

Upload Photos

1,779,012 photos uploaded!

WunderBlogs® & News

Nearby

Air Quality

  Air Quality AQ Index Pollutant
Not available.

Snow Depth

Station Depth Elevation

Earthquake Activity

City Distance Mag. Time & Date
Minimum magnitude displayed is 2.5.

Coastal Water Temperatures

Place Temperature

Nearby Weather Stations